createdAt,value
2022-11-01T00:02:46.914Z,10.42
2022-11-01T00:07:48.471Z,10.39
2022-11-01T00:12:49.952Z,10.34
2022-11-01T00:17:51.747Z,10.32
2022-11-01T00:22:53.353Z,10.31
2022-11-01T00:27:55.003Z,10.3
2022-11-01T00:32:56.765Z,10.29
2022-11-01T00:37:58.816Z,10.26
2022-11-01T00:43:00.585Z,10.22
2022-11-01T00:48:01.958Z,10.2
2022-11-01T00:53:03.253Z,10.14
2022-11-01T00:58:05.051Z,10.13
2022-11-01T01:03:06.630Z,10.09
2022-11-01T01:08:08.359Z,10.05
2022-11-01T01:13:10.559Z,9.99
2022-11-01T01:18:12.257Z,9.99
2022-11-01T01:23:13.744Z,9.97
2022-11-01T01:28:15.122Z,9.92
2022-11-01T01:33:16.459Z,9.89
2022-11-01T01:38:18.248Z,9.83
2022-11-01T01:43:19.457Z,9.78
2022-11-01T01:48:20.940Z,9.77
2022-11-01T01:53:22.872Z,9.75
2022-11-01T01:58:24.215Z,9.7
2022-11-01T02:03:25.772Z,9.71
2022-11-01T02:08:27.737Z,9.68
2022-11-01T02:13:29.641Z,9.63
2022-11-01T02:18:31.626Z,9.63
2022-11-01T02:23:32.885Z,9.64
2022-11-01T02:28:35.099Z,9.59
2022-11-01T02:33:36.424Z,9.57
2022-11-01T02:38:38.188Z,9.51
2022-11-01T02:43:39.592Z,9.43
2022-11-01T02:48:41.089Z,9.45
2022-11-01T02:53:42.684Z,9.42
2022-11-01T02:58:44.770Z,9.39
2022-11-01T03:03:46.204Z,9.37
2022-11-01T03:08:48.276Z,9.35
2022-11-01T03:13:49.613Z,9.27
2022-11-01T03:18:51.678Z,9.26
2022-11-01T03:23:53.443Z,9.22
2022-11-01T03:33:56.786Z,9.14
2022-11-01T03:38:58.003Z,9.12
2022-11-01T03:44:00.198Z,9.1
2022-11-01T03:49:01.943Z,9.06
2022-11-01T03:54:03.260Z,9.06
2022-11-01T03:59:04.963Z,9.02
2022-11-01T04:04:06.445Z,8.97
2022-11-01T04:09:07.703Z,8.95
2022-11-01T04:14:09.515Z,8.93
2022-11-01T04:19:10.935Z,8.89
2022-11-01T04:24:12.434Z,8.88
2022-11-01T04:29:14.279Z,8.87
2022-11-01T04:34:15.479Z,8.78
2022-11-01T04:39:17.045Z,8.74
2022-11-01T04:44:19.055Z,8.7
2022-11-01T04:49:20.342Z,8.67
2022-11-01T04:54:22.106Z,8.6
2022-11-01T04:59:23.831Z,8.58
2022-11-01T05:04:25.721Z,8.55
2022-11-01T05:09:27.625Z,8.47
2022-11-01T05:14:28.895Z,8.47
2022-11-01T05:19:30.605Z,8.45
2022-11-01T05:24:32.219Z,8.43
2022-11-01T05:29:34.136Z,8.42
2022-11-01T05:34:35.415Z,8.41
2022-11-01T05:39:37.039Z,8.38
2022-11-01T05:44:38.331Z,8.38
2022-11-01T05:49:40.486Z,8.39
2022-11-01T05:54:42.473Z,8.39
2022-11-01T05:59:44.092Z,8.41
2022-11-01T06:04:45.658Z,8.43
2022-11-01T06:09:47.256Z,8.43
2022-11-01T06:14:48.786Z,8.45
2022-11-01T06:19:50.400Z,8.51
2022-11-01T06:24:52.046Z,8.55
2022-11-01T06:29:54.134Z,8.57
2022-11-01T06:34:55.635Z,8.62
2022-11-01T06:39:56.798Z,8.68
2022-11-01T06:44:58.483Z,8.76
2022-11-01T06:49:59.921Z,8.83
2022-11-01T06:55:01.298Z,8.93
2022-11-01T07:00:02.833Z,9.05
2022-11-01T07:05:04.416Z,9.21
2022-11-01T07:10:06.372Z,9.39
2022-11-01T07:15:07.730Z,9.58
2022-11-01T07:20:09.281Z,9.82
2022-11-01T07:25:11.231Z,10.09
2022-11-01T07:30:12.551Z,10.33
2022-11-01T07:35:14.234Z,10.53
2022-11-01T07:40:15.992Z,10.77
2022-11-01T07:45:18.111Z,11.21
2022-11-01T07:50:19.764Z,12.37
2022-11-01T07:55:21.518Z,12.83
2022-11-01T08:00:22.946Z,14.76
2022-11-01T08:05:24.900Z,16.34
2022-11-01T08:10:27.023Z,16.17
2022-11-01T08:15:29.023Z,16.37
2022-11-01T08:20:30.635Z,16.54
2022-11-01T08:25:32.365Z,16.61
2022-11-01T08:30:33.939Z,16.66
2022-11-01T08:35:35.934Z,16.65
2022-11-01T08:40:37.582Z,16.83
2022-11-01T08:45:39.240Z,17.28
2022-11-01T08:50:40.694Z,17.79
2022-11-01T08:55:42.269Z,18.9
2022-11-01T09:00:44.276Z,20.02
2022-11-01T09:05:45.593Z,20.87
2022-11-01T09:10:47.230Z,21.12
2022-11-01T09:15:49.268Z,21.32
2022-11-01T09:20:51.207Z,21.1
2022-11-01T09:25:53.243Z,20.76
2022-11-01T09:31:01.241Z,20.57
2022-11-01T09:35:59.497Z,20.24
2022-11-01T09:40:58.337Z,20.01
2022-11-01T09:46:00.386Z,19.83
2022-11-01T09:51:01.684Z,19.6
2022-11-01T09:56:03.163Z,19.39
2022-11-01T10:01:04.767Z,19.28
2022-11-01T10:06:06.759Z,19.14
2022-11-01T10:11:08.531Z,19.12
2022-11-01T10:16:09.939Z,19.12
2022-11-01T10:21:11.747Z,19.06
2022-11-01T10:26:12.980Z,19
2022-11-01T10:31:14.908Z,19
2022-11-01T10:36:16.673Z,18.96
2022-11-01T10:41:18.538Z,18.91
2022-11-01T10:46:20.384Z,18.94
2022-11-01T10:56:24.154Z,18.95
2022-11-01T11:06:33.421Z,19.4
2022-11-01T11:36:43.449Z,20.62
2022-11-01T11:41:45.562Z,20.71
2022-11-01T11:46:47.699Z,20.78
2022-11-01T11:51:48.958Z,20.75
2022-11-01T11:56:50.867Z,20.76
2022-11-01T12:01:52.927Z,20.8
2022-11-01T12:06:54.476Z,20.77
2022-11-01T12:11:56.613Z,20.74
2022-11-01T12:16:57.833Z,20.67
2022-11-01T12:21:59.555Z,20.49
2022-11-01T12:27:01.110Z,20.42
2022-11-01T12:32:02.462Z,20.28
2022-11-01T12:37:20.945Z,20.19
2022-11-01T12:42:05.871Z,20.09
2022-11-01T12:47:07.921Z,19.93
2022-11-01T12:52:09.283Z,19.84
2022-11-01T12:57:10.648Z,19.75
2022-11-01T13:02:12.183Z,19.61
2022-11-01T13:07:13.944Z,19.58
2022-11-01T13:12:15.567Z,19.57
2022-11-01T13:22:18.896Z,19.4
2022-11-01T13:27:20.906Z,19.29
2022-11-01T13:32:22.764Z,19.18
2022-11-01T13:37:24.170Z,19.09
2022-11-01T13:42:25.724Z,19.01
2022-11-01T13:47:27.632Z,18.89
2022-11-01T13:52:29.023Z,18.85
2022-11-01T13:57:31.019Z,18.79
2022-11-01T14:02:32.940Z,18.7
2022-11-01T14:07:34.020Z,18.69
2022-11-01T14:12:36.086Z,18.64
2022-11-01T14:17:37.851Z,18.59
2022-11-01T14:22:39.357Z,18.57
2022-11-01T14:27:41.260Z,18.52
2022-11-01T14:32:42.978Z,18.48
2022-11-01T14:37:44.913Z,18.45
2022-11-01T14:42:46.863Z,18.42
2022-11-01T14:47:48.715Z,18.35
2022-11-01T14:52:50.286Z,18.32
2022-11-01T14:57:52.015Z,18.26
2022-11-01T15:02:54.939Z,18.18
2022-11-01T15:07:55.103Z,18.12
2022-11-01T15:12:56.758Z,18.01
2022-11-01T15:17:58.283Z,17.92
2022-11-01T15:23:00.191Z,17.86
2022-11-01T15:28:01.189Z,17.79
2022-11-01T15:33:03.678Z,17.71
2022-11-01T15:38:04.738Z,17.66
2022-11-01T15:43:06.700Z,17.56
2022-11-01T15:48:08.068Z,17.49
2022-11-01T15:53:10.780Z,17.44
2022-11-01T15:58:11.463Z,17.37
2022-11-01T16:03:12.965Z,17.32
2022-11-01T16:08:14.955Z,17.28
2022-11-01T16:13:16.486Z,17.2
2022-11-01T16:18:18.612Z,17.16
2022-11-01T16:23:20.336Z,17.11
2022-11-01T16:28:22.345Z,17.01
2022-11-01T16:33:24.260Z,16.94
2022-11-01T16:38:26.240Z,16.89
2022-11-01T16:43:27.295Z,16.81
2022-11-01T16:48:29.241Z,16.73
2022-11-01T16:53:30.622Z,16.67
2022-11-01T16:58:32.156Z,16.61
2022-11-01T17:03:33.768Z,16.53
2022-11-01T17:08:35.736Z,16.49
2022-11-01T17:13:37.651Z,16.43
2022-11-01T17:18:39.504Z,16.35
2022-11-01T17:23:40.943Z,16.33
2022-11-01T17:28:44.605Z,16.28
2022-11-01T17:33:44.417Z,16.2
2022-11-01T17:38:45.692Z,16.19
2022-11-01T17:43:47.131Z,16.15
2022-11-01T17:48:48.625Z,16.07
2022-11-01T17:53:50.433Z,16.04
2022-11-01T17:58:52.456Z,16.03
2022-11-01T18:03:54.249Z,15.93
2022-11-01T18:08:55.994Z,15.91
2022-11-01T18:14:02.642Z,15.89
2022-11-01T18:19:00.077Z,15.81
2022-11-01T18:24:02.016Z,15.79
2022-11-01T18:29:03.102Z,15.77
2022-11-01T18:34:04.389Z,15.66
2022-11-01T18:39:06.376Z,15.62
2022-11-01T18:44:08.449Z,15.6
2022-11-01T18:49:10.227Z,15.52
2022-11-01T18:54:11.622Z,15.45
2022-11-01T18:59:13.362Z,15.4
2022-11-01T19:04:14.776Z,15.34
2022-11-01T19:09:16.088Z,15.28
2022-11-01T19:14:17.440Z,15.27
2022-11-01T19:19:18.823Z,15.22
2022-11-01T19:24:20.311Z,15.14
2022-11-01T19:29:21.793Z,15.13
2022-11-01T19:34:23.667Z,15.07
2022-11-01T19:39:25.613Z,14.93
2022-11-01T19:44:26.858Z,14.86
2022-11-01T19:49:28.849Z,14.74
2022-11-01T19:54:30.928Z,14.57
2022-11-01T19:59:32.763Z,14.45
2022-11-01T20:04:34.506Z,14.36
2022-11-01T20:09:36.428Z,14.18
2022-11-01T20:14:38.525Z,14.07
2022-11-01T20:19:40.002Z,14
2022-11-01T20:24:42.050Z,13.85
2022-11-01T20:29:44.161Z,13.74
2022-11-01T20:34:45.458Z,13.63
2022-11-01T20:39:47.598Z,13.52
2022-11-01T20:44:49.321Z,13.37
2022-11-01T20:49:50.949Z,13.27
2022-11-01T20:54:52.440Z,13.19
2022-11-01T20:59:53.588Z,13.08
2022-11-01T21:04:55.291Z,13
2022-11-01T21:09:56.947Z,12.9
2022-11-01T21:14:58.518Z,12.74
2022-11-01T21:20:00.520Z,12.66
2022-11-01T21:25:02.575Z,12.62
2022-11-01T21:30:03.712Z,12.51
2022-11-01T21:35:05.676Z,12.45
2022-11-01T21:40:09.731Z,12.39
2022-11-01T21:45:09.119Z,12.26
2022-11-01T21:50:10.696Z,12.2
2022-11-01T21:55:11.952Z,12.16
2022-11-01T22:00:13.792Z,12.06
2022-11-01T22:05:15.448Z,12.04
2022-11-01T22:10:17.024Z,11.97
2022-11-01T22:15:18.475Z,11.85
2022-11-01T22:20:20.443Z,11.8
2022-11-01T22:25:22.535Z,11.71
2022-11-01T22:30:23.783Z,11.62
2022-11-01T22:35:24.890Z,11.56
2022-11-01T22:40:26.455Z,11.49
2022-11-01T22:45:27.808Z,11.41
2022-11-01T22:50:28.948Z,11.39
2022-11-01T22:55:30.683Z,11.35
2022-11-01T23:15:38.295Z,11.14
2022-11-01T23:20:39.546Z,11.11
2022-11-01T23:25:41.280Z,11.08
2022-11-01T23:30:43.157Z,11.03
2022-11-01T23:35:45.169Z,11.02
2022-11-01T23:40:46.419Z,10.99
2022-11-01T23:45:48.177Z,10.92
2022-11-01T23:50:50.112Z,10.91
2022-11-01T23:55:51.597Z,10.89
